createdAt,value
2019-04-07T00:01:04.844Z,98697.66
2019-04-07T00:03:38.986Z,98694.17
2019-04-07T00:06:13.485Z,98695.05
2019-04-07T00:08:48.196Z,98690.61
2019-04-07T00:11:22.949Z,98688.30
2019-04-07T00:13:56.879Z,98691.48
2019-04-07T00:16:30.945Z,98685.29
2019-04-07T00:19:04.352Z,98689.13
2019-04-07T00:21:38.387Z,98693.25
2019-04-07T00:24:12.624Z,98692.02
2019-04-07T00:26:46.282Z,98688.09
2019-04-07T00:29:20.531Z,98693.41
2019-04-07T00:31:54.714Z,98698.45
2019-04-07T00:34:27.859Z,98699.45
2019-04-07T00:37:01.957Z,98697.37
2019-04-07T00:39:36.186Z,98696.77
2019-04-07T00:42:10.556Z,98698.92
2019-04-07T00:44:44.320Z,98701.30
2019-04-07T00:47:18.541Z,98700.53
2019-04-07T00:49:52.306Z,98702.55
2019-04-07T00:52:26.023Z,98703.32
2019-04-07T00:55:00.334Z,98708.13
2019-04-07T00:57:33.934Z,98705.84
2019-04-07T01:00:08.744Z,98705.16
2019-04-07T01:02:42.945Z,98703.89
2019-04-07T01:05:16.897Z,98702.83
2019-04-07T01:07:50.107Z,98699.52
2019-04-07T01:10:24.248Z,98699.09
2019-04-07T01:12:58.967Z,98701.40
2019-04-07T01:15:33.974Z,98705.37
2019-04-07T01:18:07.774Z,98703.92
2019-04-07T01:20:41.924Z,98703.20
2019-04-07T01:23:16.031Z,98700.94
2019-04-07T01:25:50.078Z,98698.71
2019-04-07T01:28:24.122Z,98704.30
2019-04-07T01:30:57.975Z,98700.33
2019-04-07T01:33:32.343Z,98704.01
2019-04-07T01:36:06.084Z,98706.89
2019-04-07T01:38:40.079Z,98703.86
2019-04-07T01:41:22.952Z,98710.41
2019-04-07T01:47:00.465Z,98709.64
2019-04-07T01:49:42.360Z,98707.62
2019-04-07T01:52:21.600Z,98706.70
2019-04-07T01:55:06.077Z,98704.78
2019-04-07T01:57:56.993Z,98699.69
2019-04-07T02:00:58.744Z,98705.53
2019-04-07T02:03:55.303Z,98697.28
2019-04-07T02:06:45.623Z,98697.53
2019-04-07T02:09:29.086Z,98701.47
2019-04-07T02:12:24.814Z,98694.06
2019-04-07T02:15:12.688Z,98691.64
2019-04-07T02:18:08.018Z,98691.44
2019-04-07T02:21:05.311Z,98684.59
2019-04-07T02:24:06.467Z,98691.66
2019-04-07T02:27:05.662Z,98696.38
2019-04-07T02:30:00.512Z,98699.09
2019-04-07T02:32:58.273Z,98696.97
2019-04-07T02:35:40.155Z,98696.86
2019-04-07T02:38:42.376Z,98692.25
2019-04-07T02:41:26.052Z,98693.59
2019-04-07T02:44:25.147Z,98697.27
2019-04-07T02:47:06.558Z,98699.55
2019-04-07T02:49:47.537Z,98704.82
2019-04-07T02:52:52.838Z,98704.42
2019-04-07T02:55:33.514Z,98708.31
2019-04-07T02:58:15.930Z,98709.05
2019-04-07T03:01:24.025Z,98710.16
2019-04-07T03:04:10.331Z,98710.64
2019-04-07T03:06:58.657Z,98712.64
2019-04-07T03:10:09.378Z,98715.86
2019-04-07T03:13:07.312Z,98714.66
2019-04-07T03:15:46.209Z,98714.70
2019-04-07T03:18:37.402Z,98718.08
2019-04-07T03:21:45.807Z,98717.51
2019-04-07T03:24:36.999Z,98715.41
2019-04-07T03:27:27.197Z,98721.41
2019-04-07T03:30:24.760Z,98718.08
2019-04-07T03:33:14.110Z,98720.39
2019-04-07T03:36:11.680Z,98723.25
2019-04-07T03:38:53.748Z,98724.10
2019-04-07T03:41:47.190Z,98729.03
2019-04-07T03:44:40.810Z,98723.85
2019-04-07T03:47:34.565Z,98725.95
2019-04-07T03:50:25.663Z,98723.92
2019-04-07T03:53:33.662Z,98725.20
2019-04-07T03:56:28.818Z,98722.89
2019-04-07T03:59:30.269Z,98720.53
2019-04-07T04:02:25.011Z,98723.74
2019-04-07T04:05:18.916Z,98725.95
2019-04-07T04:08:14.360Z,98733.77
2019-04-07T04:10:54.260Z,98732.72
2019-04-07T04:13:42.973Z,98741.23
2019-04-07T04:16:23.865Z,98743.94
2019-04-07T04:18:57.466Z,98745.64
2019-04-07T04:21:32.775Z,98746.20
2019-04-07T04:24:06.816Z,98741.42
2019-04-07T04:26:40.933Z,98740.64
2019-04-07T04:29:15.709Z,98744.92
2019-04-07T04:31:49.404Z,98747.25
2019-04-07T04:34:23.830Z,98744.27
2019-04-07T04:36:57.400Z,98745.22
2019-04-07T04:39:31.517Z,98748.58
2019-04-07T04:42:05.513Z,98747.98
2019-04-07T04:44:40.493Z,98746.83
2019-04-07T04:47:14.593Z,98742.19
2019-04-07T04:49:48.391Z,98747.16
2019-04-07T04:52:22.559Z,98745.24
2019-04-07T04:54:55.426Z,98751.22
2019-04-07T04:57:29.307Z,98751.72
2019-04-07T05:00:05.055Z,98757.29
2019-04-07T05:02:39.436Z,98753.81
2019-04-07T05:05:13.391Z,98757.08
2019-04-07T05:07:57.724Z,98754.90
2019-04-07T05:10:22.813Z,98754.84
2019-04-07T05:12:57.216Z,98751.50
2019-04-07T05:15:30.930Z,98751.06
2019-04-07T05:18:05.249Z,98755.70
2019-04-07T05:20:38.924Z,98763.48
2019-04-07T05:23:13.027Z,98762.78
2019-04-07T05:25:46.679Z,98763.45
2019-04-07T05:28:20.065Z,98767.58
2019-04-07T05:30:54.317Z,98766.48
2019-04-07T05:33:28.634Z,98766.05
2019-04-07T05:36:02.093Z,98769.00
2019-04-07T05:38:35.887Z,98770.21
2019-04-07T05:41:10.763Z,98773.34
2019-04-07T05:43:44.527Z,98776.65
2019-04-07T05:46:19.319Z,98775.59
2019-04-07T05:48:53.133Z,98772.58
2019-04-07T05:51:29.947Z,98777.34
2019-04-07T05:54:02.610Z,98774.13
2019-04-07T05:56:37.013Z,98777.48
2019-04-07T05:59:13.069Z,98776.77
2019-04-07T06:01:47.021Z,98771.86
2019-04-07T06:04:21.792Z,98773.77
2019-04-07T06:06:56.665Z,98770.42
2019-04-07T06:09:33.529Z,98769.09
2019-04-07T06:12:09.061Z,98766.39
2019-04-07T06:14:41.722Z,98768.98
2019-04-07T06:17:16.220Z,98775.62
2019-04-07T06:19:52.435Z,98776.25
2019-04-07T06:22:26.302Z,98771.06
2019-04-07T06:25:01.710Z,98770.33
2019-04-07T06:27:35.879Z,98772.28
2019-04-07T06:30:10.909Z,98775.83
2019-04-07T06:32:44.749Z,98776.77
2019-04-07T06:35:18.301Z,98779.76
2019-04-07T06:37:52.046Z,98774.79
2019-04-07T06:40:24.787Z,98771.80
2019-04-07T06:42:59.033Z,98774.12
2019-04-07T06:45:37.623Z,98776.47
2019-04-07T06:48:10.292Z,98774.34
2019-04-07T06:51:13.959Z,98778.86
2019-04-07T06:54:05.851Z,98777.91
2019-04-07T06:57:09.434Z,98775.73
2019-04-07T06:59:59.113Z,98774.03
2019-04-07T07:02:50.376Z,98776.81
2019-04-07T07:05:35.414Z,98779.11
2019-04-07T07:08:29.038Z,98777.42
2019-04-07T07:11:24.753Z,98778.80
2019-04-07T07:14:01.158Z,98786.35
2019-04-07T07:16:56.566Z,98784.93
2019-04-07T07:19:39.099Z,98780.73
2019-04-07T07:22:35.714Z,98784.36
2019-04-07T07:25:11.119Z,98783.34
2019-04-07T07:27:46.034Z,98787.18
2019-04-07T07:30:21.390Z,98790.80
2019-04-07T07:32:55.283Z,98790.78
2019-04-07T07:35:29.715Z,98794.20
2019-04-07T07:38:02.942Z,98805.51
2019-04-07T07:40:36.592Z,98798.83
2019-04-07T07:43:10.727Z,98798.52
2019-04-07T07:45:47.367Z,98805.70
2019-04-07T07:48:24.938Z,98799.98
2019-04-07T07:50:56.472Z,98799.39
2019-04-07T07:53:29.679Z,98798.23
2019-04-07T07:56:08.461Z,98798.20
2019-04-07T07:58:39.568Z,98797.78
2019-04-07T08:01:14.844Z,98803.63
2019-04-07T08:03:51.834Z,98800.53
2019-04-07T08:06:25.033Z,98797.14
2019-04-07T08:09:09.816Z,98801.75
2019-04-07T08:11:34.740Z,98802.75
2019-04-07T08:14:09.035Z,98801.39
2019-04-07T08:16:42.643Z,98801.25
2019-04-07T08:19:16.800Z,98799.17
2019-04-07T08:21:51.992Z,98798.02
2019-04-07T08:24:26.165Z,98803.53
2019-04-07T08:27:00.216Z,98801.61
2019-04-07T08:29:37.130Z,98802.81
2019-04-07T08:32:09.678Z,98805.03
2019-04-07T08:34:43.687Z,98807.48
2019-04-07T08:37:19.010Z,98807.45
2019-04-07T08:39:55.794Z,98807.09
2019-04-07T08:42:27.906Z,98806.16
2019-04-07T08:45:03.306Z,98807.38
2019-04-07T08:47:38.100Z,98813.44
2019-04-07T08:50:11.563Z,98806.29
2019-04-07T08:52:44.479Z,98808.50
2019-04-07T08:55:20.109Z,98802.91
2019-04-07T08:57:54.999Z,98806.42
2019-04-07T09:00:29.418Z,98803.97
2019-04-07T09:03:08.298Z,98802.66
2019-04-07T09:05:39.870Z,98802.27
2019-04-07T09:08:14.898Z,98800.22
2019-04-07T09:11:02.269Z,98796.81
2019-04-07T09:13:36.324Z,98794.54
2019-04-07T09:16:21.196Z,98790.47
2019-04-07T09:19:08.313Z,98793.77
2019-04-07T09:22:00.681Z,98798.48
2019-04-07T09:25:06.663Z,98791.55
2019-04-07T09:27:51.112Z,98787.38
2019-04-07T09:30:40.936Z,98783.63
2019-04-07T09:33:38.852Z,98788.37
2019-04-07T09:36:32.595Z,98790.47
2019-04-07T09:39:32.116Z,98793.59
2019-04-07T09:42:24.373Z,98785.44
2019-04-07T09:45:22.991Z,98786.35
2019-04-07T09:48:10.502Z,98784.23
2019-04-07T09:51:05.114Z,98782.40
2019-04-07T09:53:55.431Z,98779.80
2019-04-07T09:56:47.219Z,98780.61
2019-04-07T09:59:40.631Z,98780.21
2019-04-07T10:02:34.161Z,98782.63
2019-04-07T10:05:42.407Z,98782.30
2019-04-07T10:08:23.901Z,98781.34
2019-04-07T10:11:05.307Z,98779.42
2019-04-07T10:13:51.949Z,98783.77
2019-04-07T10:16:41.930Z,98784.86
2019-04-07T10:19:36.291Z,98786.09
2019-04-07T10:22:25.539Z,98787.45
2019-04-07T10:25:13.000Z,98780.09
2019-04-07T10:28:09.640Z,98781.14
2019-04-07T10:30:59.832Z,98781.37
2019-04-07T10:34:12.357Z,98778.20
2019-04-07T10:37:06.698Z,98775.25
2019-04-07T10:40:01.681Z,98776.27
2019-04-07T10:42:57.242Z,98777.33
2019-04-07T10:45:50.552Z,98775.27
2019-04-07T10:48:37.836Z,98772.02
2019-04-07T10:51:28.498Z,98773.90
2019-04-07T10:54:21.278Z,98768.86
2019-04-07T10:57:03.338Z,98772.45
2019-04-07T10:59:53.462Z,98772.73
2019-04-07T11:02:53.887Z,98769.36
2019-04-07T11:05:52.351Z,98776.03
2019-04-07T11:08:52.231Z,98771.28
2019-04-07T11:11:43.718Z,98772.54
2019-04-07T11:14:31.429Z,98769.84
2019-04-07T11:17:21.573Z,98767.63
2019-04-07T11:20:17.026Z,98765.92
2019-04-07T11:23:11.987Z,98772.48
2019-04-07T11:25:57.006Z,98767.32
2019-04-07T11:29:02.784Z,98767.27
2019-04-07T11:31:48.466Z,98764.15
2019-04-07T11:34:52.941Z,98764.03
2019-04-07T11:37:37.562Z,98762.00
2019-04-07T11:40:29.178Z,98755.41
2019-04-07T11:43:10.937Z,98755.55
2019-04-07T11:45:57.445Z,98756.66
2019-04-07T11:48:33.174Z,98757.97
2019-04-07T11:51:28.957Z,98753.22
2019-04-07T11:54:17.506Z,98752.63
2019-04-07T11:57:08.678Z,98750.95
2019-04-07T12:00:00.064Z,98744.21
2019-04-07T12:03:06.080Z,98740.70
2019-04-07T12:05:53.875Z,98738.23
2019-04-07T12:08:45.657Z,98733.50
2019-04-07T12:11:31.118Z,98722.48
2019-04-07T12:14:21.827Z,98726.79
2019-04-07T12:17:19.933Z,98719.89
2019-04-07T12:19:58.107Z,98716.38
2019-04-07T12:23:01.851Z,98710.16
2019-04-07T12:26:02.125Z,98709.54
2019-04-07T12:29:10.795Z,98699.13
2019-04-07T12:31:51.041Z,98698.23
2019-04-07T12:34:41.800Z,98689.97
2019-04-07T12:37:50.663Z,98686.38
2019-04-07T12:40:59.498Z,98686.63
2019-04-07T12:43:49.563Z,98682.82
2019-04-07T12:46:38.489Z,98674.86
2019-04-07T12:49:32.942Z,98671.09
2019-04-07T12:52:29.825Z,98667.76
2019-04-07T12:55:16.827Z,98669.66
2019-04-07T12:58:21.454Z,98665.48
2019-04-07T13:01:16.347Z,98663.33
2019-04-07T13:04:13.276Z,98663.78
2019-04-07T13:07:07.814Z,98656.48
2019-04-07T13:09:55.507Z,98653.38
2019-04-07T13:12:57.179Z,98654.83
2019-04-07T13:15:46.458Z,98649.03
2019-04-07T13:18:42.453Z,98645.11
2019-04-07T13:21:45.515Z,98642.11
2019-04-07T13:24:37.775Z,98639.44
2019-04-07T13:27:22.156Z,98638.35
2019-04-07T13:30:08.411Z,98629.05
2019-04-07T13:33:00.600Z,98630.11
2019-04-07T13:35:49.244Z,98626.28
2019-04-07T13:38:46.582Z,98623.66
2019-04-07T13:41:45.898Z,98623.84
2019-04-07T13:44:38.773Z,98627.27
2019-04-07T13:47:20.616Z,98625.27
2019-04-07T13:50:02.630Z,98620.06
2019-04-07T13:52:57.855Z,98622.67
2019-04-07T13:55:48.658Z,98620.36
2019-04-07T13:58:38.915Z,98621.20
2019-04-07T14:01:37.288Z,98618.42
2019-04-07T14:04:40.037Z,98622.98
2019-04-07T14:07:37.241Z,98617.97
2019-04-07T14:10:33.337Z,98624.53
2019-04-07T14:13:37.941Z,98620.00
2019-04-07T14:16:15.905Z,98624.03
2019-04-07T14:19:17.816Z,98619.17
2019-04-07T14:21:58.926Z,98613.70
2019-04-07T14:24:53.754Z,98622.25
2019-04-07T14:27:33.997Z,98624.66
2019-04-07T14:30:42.297Z,98621.62
2019-04-07T14:33:24.256Z,98616.07
2019-04-07T14:36:25.064Z,98619.96
2019-04-07T14:39:29.388Z,98619.49
2019-04-07T14:42:34.204Z,98618.09
2019-04-07T14:45:20.064Z,98617.49
2019-04-07T14:47:59.318Z,98620.01
2019-04-07T14:50:47.344Z,98619.16
2019-04-07T14:53:36.677Z,98618.61
2019-04-07T14:56:40.834Z,98622.83
2019-04-07T14:59:52.106Z,98617.95
2019-04-07T15:02:25.098Z,98622.77
2019-04-07T15:05:01.561Z,98617.36
2019-04-07T15:07:53.919Z,98611.66
2019-04-07T15:10:30.808Z,98611.23
2019-04-07T15:13:07.100Z,98609.34
2019-04-07T15:15:40.000Z,98616.63
2019-04-07T15:18:13.135Z,98612.14
2019-04-07T15:20:47.342Z,98618.45
2019-04-07T15:23:21.517Z,98616.99
2019-04-07T15:25:55.288Z,98624.68
2019-04-07T15:28:30.672Z,98623.21
2019-04-07T15:31:04.187Z,98625.43
2019-04-07T15:33:37.025Z,98630.12
2019-04-07T15:36:10.830Z,98631.44
2019-04-07T15:38:44.115Z,98628.09
2019-04-07T15:41:18.912Z,98626.34
2019-04-07T15:43:50.972Z,98623.13
2019-04-07T15:46:23.832Z,98629.34
2019-04-07T15:48:56.887Z,98631.12
2019-04-07T15:51:34.125Z,98632.23
2019-04-07T15:54:04.739Z,98633.06
2019-04-07T15:56:38.166Z,98633.95
2019-04-07T15:59:11.855Z,98633.95
2019-04-07T16:01:45.168Z,98634.38
2019-04-07T16:04:23.707Z,98638.27
2019-04-07T16:06:52.924Z,98640.61
2019-04-07T16:09:36.013Z,98643.29
2019-04-07T16:12:00.608Z,98644.53
2019-04-07T16:14:33.129Z,98644.70
2019-04-07T16:17:07.311Z,98641.06
2019-04-07T16:19:43.084Z,98640.20
2019-04-07T16:22:15.495Z,98644.69
2019-04-07T16:24:51.569Z,98643.83
2019-04-07T16:27:26.044Z,98645.70
2019-04-07T16:29:58.349Z,98646.34
2019-04-07T16:32:32.755Z,98648.70
2019-04-07T16:35:06.771Z,98650.91
2019-04-07T16:37:40.169Z,98655.09
2019-04-07T16:40:14.149Z,98653.38
2019-04-07T16:43:01.260Z,98655.20
2019-04-07T16:45:22.354Z,98655.32
2019-04-07T16:47:56.538Z,98658.62
2019-04-07T16:50:30.163Z,98662.14
2019-04-07T16:53:03.563Z,98660.54
2019-04-07T16:55:48.873Z,98663.56
2019-04-07T16:58:18.598Z,98668.97
2019-04-07T17:00:51.766Z,98670.48
2019-04-07T17:03:25.742Z,98678.71
2019-04-07T17:06:01.217Z,98675.47
2019-04-07T17:08:33.856Z,98678.66
2019-04-07T17:11:08.117Z,98679.47
2019-04-07T17:13:42.980Z,98675.33
2019-04-07T17:16:22.153Z,98686.72
2019-04-07T17:18:56.208Z,98685.92
2019-04-07T17:21:30.139Z,98683.97
2019-04-07T17:24:04.179Z,98687.39
2019-04-07T17:26:39.307Z,98691.14
2019-04-07T17:29:17.056Z,98689.51
2019-04-07T17:31:48.646Z,98690.05
2019-04-07T17:34:21.709Z,98699.14
2019-04-07T17:36:56.329Z,98701.66
2019-04-07T17:39:43.908Z,98703.75
2019-04-07T17:42:18.386Z,98703.63
2019-04-07T17:45:13.086Z,98707.48
2019-04-07T17:48:20.285Z,98715.65
2019-04-07T17:51:12.513Z,98715.74
2019-04-07T17:53:58.314Z,98720.86
2019-04-07T17:56:43.185Z,98722.04
2019-04-07T17:59:35.090Z,98732.66
2019-04-07T18:02:30.388Z,98729.16
2019-04-07T18:05:24.269Z,98732.65
2019-04-07T18:08:10.181Z,98735.81
2019-04-07T18:11:04.347Z,98742.73
2019-04-07T18:14:13.981Z,98741.70
2019-04-07T18:16:55.333Z,98746.80
2019-04-07T18:19:38.612Z,98755.19
2019-04-07T18:22:29.687Z,98758.55
2019-04-07T18:25:21.643Z,98760.66
2019-04-07T18:28:07.083Z,98760.46
2019-04-07T18:31:15.294Z,98761.20
2019-04-07T18:34:25.758Z,98760.44
2019-04-07T18:37:18.372Z,98761.74
2019-04-07T18:40:09.740Z,98761.08
2019-04-07T18:42:59.197Z,98766.69
2019-04-07T18:45:52.673Z,98764.95
2019-04-07T18:48:38.976Z,98764.09
2019-04-07T18:51:27.973Z,98766.63
2019-04-07T18:54:13.608Z,98774.78
2019-04-07T18:57:05.649Z,98776.41
2019-04-07T19:00:03.040Z,98776.50
2019-04-07T19:02:48.232Z,98777.24
2019-04-07T19:05:33.396Z,98774.52
2019-04-07T19:08:27.171Z,98776.23
2019-04-07T19:11:15.278Z,98776.09
2019-04-07T19:14:25.219Z,98777.75
2019-04-07T19:17:08.465Z,98781.97
2019-04-07T19:20:12.985Z,98781.24
2019-04-07T19:22:58.636Z,98784.29
2019-04-07T19:25:48.091Z,98784.88
2019-04-07T19:28:42.365Z,98788.67
2019-04-07T19:31:32.927Z,98786.53
2019-04-07T19:34:28.415Z,98785.75
2019-04-07T19:37:22.418Z,98796.28
2019-04-07T19:40:14.510Z,98803.73
2019-04-07T19:42:52.702Z,98801.48
2019-04-07T19:45:50.169Z,98802.13
2019-04-07T19:48:42.768Z,98808.98
2019-04-07T19:51:39.672Z,98808.91
2019-04-07T19:54:29.333Z,98811.95
2019-04-07T19:57:27.865Z,98812.41
2019-04-07T20:00:23.433Z,98810.02
2019-04-07T20:03:20.330Z,98811.56
2019-04-07T20:06:07.125Z,98813.52
2019-04-07T20:09:11.251Z,98815.03
2019-04-07T20:12:02.845Z,98817.59
2019-04-07T20:15:00.557Z,98813.39
2019-04-07T20:17:56.520Z,98814.08
2019-04-07T20:20:43.516Z,98823.45
2019-04-07T20:23:28.503Z,98824.98
2019-04-07T20:26:26.030Z,98827.17
2019-04-07T20:29:39.301Z,98830.88
2019-04-07T20:32:33.490Z,98826.59
2019-04-07T20:35:39.283Z,98829.79
2019-04-07T20:38:31.703Z,98829.91
2019-04-07T20:41:29.470Z,98841.76
2019-04-07T20:44:23.204Z,98839.08
2019-04-07T20:47:16.155Z,98835.53
2019-04-07T20:50:12.518Z,98835.36
2019-04-07T20:53:21.758Z,98835.97
2019-04-07T20:56:18.614Z,98834.41
2019-04-07T20:59:13.866Z,98833.78
2019-04-07T21:02:11.481Z,98831.11
2019-04-07T21:05:12.455Z,98828.42
2019-04-07T21:08:12.911Z,98834.89
2019-04-07T21:11:01.489Z,98829.69
2019-04-07T21:13:47.175Z,98825.88
2019-04-07T21:16:34.228Z,98829.48
2019-04-07T21:19:14.131Z,98830.20
2019-04-07T21:21:58.489Z,98836.13
2019-04-07T21:24:38.997Z,98834.53
2019-04-07T21:27:33.735Z,98838.23
2019-04-07T21:30:14.801Z,98834.23
2019-04-07T21:33:13.213Z,98841.51
2019-04-07T21:36:06.456Z,98844.75
2019-04-07T21:38:56.409Z,98843.41
2019-04-07T21:41:50.327Z,98844.91
2019-04-07T21:44:50.914Z,98844.70
2019-04-07T21:47:36.589Z,98848.02
2019-04-07T21:50:31.573Z,98847.91
2019-04-07T21:53:33.484Z,98842.60
2019-04-07T21:56:20.901Z,98840.67
2019-04-07T21:59:11.733Z,98842.27
2019-04-07T22:02:11.832Z,98836.97
2019-04-07T22:05:02.966Z,98835.63
2019-04-07T22:07:55.673Z,98840.09
2019-04-07T22:10:30.756Z,98832.80
2019-04-07T22:13:06.452Z,98832.64
2019-04-07T22:15:45.807Z,98833.94
2019-04-07T22:18:14.934Z,98834.31
2019-04-07T22:20:52.960Z,98838.48
2019-04-07T22:23:25.064Z,98841.75
2019-04-07T22:25:59.425Z,98837.75
2019-04-07T22:28:33.613Z,98840.95
2019-04-07T22:31:10.934Z,98842.16
2019-04-07T22:33:42.894Z,98842.37
2019-04-07T22:36:17.079Z,98841.27
2019-04-07T22:38:54.411Z,98842.36
2019-04-07T22:41:27.038Z,98842.48
2019-04-07T22:44:00.833Z,98846.23
2019-04-07T22:46:35.002Z,98847.02
2019-04-07T22:49:07.848Z,98846.25
2019-04-07T22:51:44.629Z,98843.40
2019-04-07T22:54:16.740Z,98846.92
2019-04-07T22:56:52.191Z,98840.83
2019-04-07T22:59:26.023Z,98844.02
2019-04-07T23:01:59.875Z,98841.14
2019-04-07T23:04:34.313Z,98842.87
2019-04-07T23:07:08.232Z,98842.78
2019-04-07T23:09:42.740Z,98844.48
2019-04-07T23:12:16.911Z,98845.62
2019-04-07T23:14:51.371Z,98843.22
2019-04-07T23:17:24.584Z,98842.78
2019-04-07T23:19:58.854Z,98839.38
2019-04-07T23:22:32.174Z,98843.02
2019-04-07T23:25:05.765Z,98843.14
2019-04-07T23:27:38.771Z,98847.24
2019-04-07T23:30:14.016Z,98845.99
2019-04-07T23:32:47.941Z,98845.09
2019-04-07T23:35:22.316Z,98846.83
2019-04-07T23:37:55.941Z,98839.32
2019-04-07T23:40:30.172Z,98844.63
2019-04-07T23:43:04.711Z,98841.50
2019-04-07T23:45:38.825Z,98841.32
2019-04-07T23:48:12.572Z,98846.09
2019-04-07T23:50:46.562Z,98844.38
2019-04-07T23:54:14.398Z,98838.56
2019-04-07T23:56:48.670Z,98849.28
2019-04-07T23:59:22.832Z,98842.81
